sensor_id;sensor_type;location;lat;lon;timestamp;temperature;humidity
2657;DHT22;1338;48.176;11.792;2024-03-25T00:00:51;3.40;99.90
2657;DHT22;1338;48.176;11.792;2024-03-25T00:03:18;3.40;99.90
2657;DHT22;1338;48.176;11.792;2024-03-25T00:05:47;3.60;99.90
2657;DHT22;1338;48.176;11.792;2024-03-25T00:08:14;3.40;99.90
2657;DHT22;1338;48.176;11.792;2024-03-25T00:10:41;3.40;99.90
2657;DHT22;1338;48.176;11.792;2024-03-25T00:13:08;3.60;99.90
2657;DHT22;1338;48.176;11.792;2024-03-25T00:15:36;3.60;99.90
2657;DHT22;1338;48.176;11.792;2024-03-25T00:18:04;3.60;99.90
2657;DHT22;1338;48.176;11.792;2024-03-25T00:20:31;3.60;99.90
2657;DHT22;1338;48.176;11.792;2024-03-25T00:23:00;3.60;99.90
2657;DHT22;1338;48.176;11.792;2024-03-25T00:25:26;3.60;99.90
2657;DHT22;1338;48.176;11.792;2024-03-25T00:27:54;3.60;99.90
2657;DHT22;1338;48.176;11.792;2024-03-25T00:30:20;3.60;99.90
2657;DHT22;1338;48.176;11.792;2024-03-25T00:32:48;3.50;99.90
2657;DHT22;1338;48.176;11.792;2024-03-25T00:35:14;3.50;99.90
2657;DHT22;1338;48.176;11.792;2024-03-25T00:37:42;3.40;99.90
2657;DHT22;1338;48.176;11.792;2024-03-25T00:40:11;3.50;99.90
2657;DHT22;1338;48.176;11.792;2024-03-25T00:42:39;3.50;99.90
2657;DHT22;1338;48.176;11.792;2024-03-25T00:45:06;3.40;99.90
2657;DHT22;1338;48.176;11.792;2024-03-25T00:47:35;3.60;99.90
2657;DHT22;1338;48.176;11.792;2024-03-25T00:50:01;3.60;99.90
2657;DHT22;1338;48.176;11.792;2024-03-25T00:52:29;3.60;99.90
2657;DHT22;1338;48.176;11.792;2024-03-25T00:54:55;3.60;99.90
2657;DHT22;1338;48.176;11.792;2024-03-25T00:57:24;3.50;99.90
2657;DHT22;1338;48.176;11.792;2024-03-25T00:59:51;3.50;99.90
2657;DHT22;1338;48.176;11.792;2024-03-25T01:02:18;3.50;99.90
2657;DHT22;1338;48.176;11.792;2024-03-25T01:04:45;3.50;99.90
2657;DHT22;1338;48.176;11.792;2024-03-25T01:07:13;3.50;99.90
2657;DHT22;1338;48.176;11.792;2024-03-25T01:09:39;3.50;99.90
2657;DHT22;1338;48.176;11.792;2024-03-25T01:12:07;3.50;99.90
2657;DHT22;1338;48.176;11.792;2024-03-25T01:14:35;3.50;99.90
2657;DHT22;1338;48.176;11.792;2024-03-25T01:17:02;3.50;99.90
2657;DHT22;1338;48.176;11.792;2024-03-25T01:19:29;3.50;99.90
2657;DHT22;1338;48.176;11.792;2024-03-25T01:21:57;3.40;99.90
2657;DHT22;1338;48.176;11.792;2024-03-25T01:24:23;3.40;99.90
2657;DHT22;1338;48.176;11.792;2024-03-25T01:26:51;3.20;99.90
2657;DHT22;1338;48.176;11.792;2024-03-25T01:29:17;3.20;99.90
2657;DHT22;1338;48.176;11.792;2024-03-25T01:31:47;3.20;99.90
2657;DHT22;1338;48.176;11.792;2024-03-25T01:34:13;3.30;99.90
2657;DHT22;1338;48.176;11.792;2024-03-25T01:36:41;3.20;99.90
2657;DHT22;1338;48.176;11.792;2024-03-25T01:39:08;3.20;99.90
2657;DHT22;1338;48.176;11.792;2024-03-25T01:41:36;3.20;99.90
2657;DHT22;1338;48.176;11.792;2024-03-25T01:44:03;3.20;99.90
2657;DHT22;1338;48.176;11.792;2024-03-25T01:46:30;3.10;99.90
2657;DHT22;1338;48.176;11.792;2024-03-25T01:48:58;3.00;99.90
2657;DHT22;1338;48.176;11.792;2024-03-25T01:51:26;3.10;99.90
2657;DHT22;1338;48.176;11.792;2024-03-25T01:53:54;3.20;99.90
2657;DHT22;1338;48.176;11.792;2024-03-25T01:56:23;3.10;99.90
2657;DHT22;1338;48.176;11.792;2024-03-25T01:58:50;3.10;99.90
2657;DHT22;1338;48.176;11.792;2024-03-25T02:01:19;3.20;99.90
2657;DHT22;1338;48.176;11.792;2024-03-25T02:03:46;3.20;99.90
2657;DHT22;1338;48.176;11.792;2024-03-25T02:06:17;3.20;99.90
2657;DHT22;1338;48.176;11.792;2024-03-25T02:08:44;3.20;99.90
2657;DHT22;1338;48.176;11.792;2024-03-25T02:11:12;3.20;99.90
2657;DHT22;1338;48.176;11.792;2024-03-25T02:13:39;3.30;99.90
2657;DHT22;1338;48.176;11.792;2024-03-25T02:16:07;3.40;99.90
2657;DHT22;1338;48.176;11.792;2024-03-25T02:18:33;3.20;99.90
2657;DHT22;1338;48.176;11.792;2024-03-25T02:21:02;3.20;99.90
2657;DHT22;1338;48.176;11.792;2024-03-25T02:23:30;3.10;99.90
2657;DHT22;1338;48.176;11.792;2024-03-25T02:25:59;3.00;99.90
2657;DHT22;1338;48.176;11.792;2024-03-25T02:28:26;3.20;99.90
2657;DHT22;1338;48.176;11.792;2024-03-25T02:30:54;3.00;99.90
2657;DHT22;1338;48.176;11.792;2024-03-25T02:33:20;3.20;99.90
2657;DHT22;1338;48.176;11.792;2024-03-25T02:35:48;3.10;99.90
2657;DHT22;1338;48.176;11.792;2024-03-25T02:38:15;3.10;99.90
2657;DHT22;1338;48.176;11.792;2024-03-25T02:40:44;3.00;99.90
2657;DHT22;1338;48.176;11.792;2024-03-25T02:43:13;3.00;99.90
2657;DHT22;1338;48.176;11.792;2024-03-25T02:45:41;3.10;99.90
2657;DHT22;1338;48.176;11.792;2024-03-25T02:48:07;3.20;99.90
2657;DHT22;1338;48.176;11.792;2024-03-25T02:50:35;3.20;99.90
2657;DHT22;1338;48.176;11.792;2024-03-25T02:53:01;3.20;99.90
2657;DHT22;1338;48.176;11.792;2024-03-25T02:55:29;3.10;99.90
2657;DHT22;1338;48.176;11.792;2024-03-25T02:57:55;3.10;99.90
2657;DHT22;1338;48.176;11.792;2024-03-25T03:00:24;3.20;99.90
2657;DHT22;1338;48.176;11.792;2024-03-25T03:02:51;3.20;99.90
2657;DHT22;1338;48.176;11.792;2024-03-25T03:05:19;3.10;99.90
2657;DHT22;1338;48.176;11.792;2024-03-25T03:07:46;3.20;99.90
2657;DHT22;1338;48.176;11.792;2024-03-25T03:10:13;3.20;99.90
2657;DHT22;1338;48.176;11.792;2024-03-25T03:12:42;3.20;99.90
2657;DHT22;1338;48.176;11.792;2024-03-25T03:15:09;3.20;99.90
2657;DHT22;1338;48.176;11.792;2024-03-25T03:17:37;3.20;99.90
2657;DHT22;1338;48.176;11.792;2024-03-25T03:20:06;3.20;99.90
2657;DHT22;1338;48.176;11.792;2024-03-25T03:22:33;3.20;99.90
2657;DHT22;1338;48.176;11.792;2024-03-25T03:25:00;3.20;99.90
2657;DHT22;1338;48.176;11.792;2024-03-25T03:27:27;3.20;99.90
2657;DHT22;1338;48.176;11.792;2024-03-25T03:29:54;3.20;99.90
2657;DHT22;1338;48.176;11.792;2024-03-25T03:32:21;3.20;99.90
2657;DHT22;1338;48.176;11.792;2024-03-25T03:34:50;3.20;99.90
2657;DHT22;1338;48.176;11.792;2024-03-25T03:37:16;3.30;99.90
2657;DHT22;1338;48.176;11.792;2024-03-25T03:39:44;3.30;99.90
2657;DHT22;1338;48.176;11.792;2024-03-25T03:42:10;3.30;99.90
2657;DHT22;1338;48.176;11.792;2024-03-25T03:44:40;3.30;99.90
2657;DHT22;1338;48.176;11.792;2024-03-25T03:47:06;3.30;99.90
2657;DHT22;1338;48.176;11.792;2024-03-25T03:49:33;3.20;99.90
2657;DHT22;1338;48.176;11.792;2024-03-25T03:52:01;3.20;99.90
2657;DHT22;1338;48.176;11.792;2024-03-25T03:54:29;3.30;99.90
2657;DHT22;1338;48.176;11.792;2024-03-25T03:56:56;3.30;99.90
2657;DHT22;1338;48.176;11.792;2024-03-25T03:59:23;3.30;99.90
2657;DHT22;1338;48.176;11.792;2024-03-25T04:01:50;3.20;99.90
2657;DHT22;1338;48.176;11.792;2024-03-25T04:04:17;3.20;99.90
2657;DHT22;1338;48.176;11.792;2024-03-25T04:06:44;3.20;99.90
2657;DHT22;1338;48.176;11.792;2024-03-25T04:09:13;3.10;99.90
2657;DHT22;1338;48.176;11.792;2024-03-25T04:11:40;3.00;99.90
2657;DHT22;1338;48.176;11.792;2024-03-25T04:14:07;3.10;99.90
2657;DHT22;1338;48.176;11.792;2024-03-25T04:16:34;3.00;99.90
2657;DHT22;1338;48.176;11.792;2024-03-25T04:19:01;2.90;99.90
2657;DHT22;1338;48.176;11.792;2024-03-25T04:21:27;2.80;99.90
2657;DHT22;1338;48.176;11.792;2024-03-25T04:23:56;2.80;99.90
2657;DHT22;1338;48.176;11.792;2024-03-25T04:26:24;2.80;99.90
2657;DHT22;1338;48.176;11.792;2024-03-25T04:28:51;2.80;99.90
2657;DHT22;1338;48.176;11.792;2024-03-25T04:31:18;2.80;99.90
2657;DHT22;1338;48.176;11.792;2024-03-25T04:33:46;2.70;99.90
2657;DHT22;1338;48.176;11.792;2024-03-25T04:36:12;2.60;99.90
2657;DHT22;1338;48.176;11.792;2024-03-25T04:38:40;2.70;99.90
2657;DHT22;1338;48.176;11.792;2024-03-25T04:41:07;2.60;99.90
2657;DHT22;1338;48.176;11.792;2024-03-25T04:43:35;2.50;99.90
2657;DHT22;1338;48.176;11.792;2024-03-25T04:46:02;2.50;99.90
2657;DHT22;1338;48.176;11.792;2024-03-25T04:48:29;2.50;99.90
2657;DHT22;1338;48.176;11.792;2024-03-25T04:50:56;2.40;99.90
2657;DHT22;1338;48.176;11.792;2024-03-25T04:53:24;2.40;99.90
2657;DHT22;1338;48.176;11.792;2024-03-25T04:55:51;2.20;99.90
2657;DHT22;1338;48.176;11.792;2024-03-25T04:58:18;2.40;99.90
2657;DHT22;1338;48.176;11.792;2024-03-25T05:00:46;2.30;99.90
2657;DHT22;1338;48.176;11.792;2024-03-25T05:03:12;2.40;99.90
2657;DHT22;1338;48.176;11.792;2024-03-25T05:05:40;2.30;99.90
2657;DHT22;1338;48.176;11.792;2024-03-25T05:08:07;2.30;99.90
2657;DHT22;1338;48.176;11.792;2024-03-25T05:10:33;2.30;99.90
2657;DHT22;1338;48.176;11.792;2024-03-25T05:13:00;2.30;99.90
2657;DHT22;1338;48.176;11.792;2024-03-25T05:15:27;2.30;99.90
2657;DHT22;1338;48.176;11.792;2024-03-25T05:17:56;2.30;99.90
2657;DHT22;1338;48.176;11.792;2024-03-25T05:20:22;2.20;99.90
2657;DHT22;1338;48.176;11.792;2024-03-25T05:22:49;2.20;99.90
2657;DHT22;1338;48.176;11.792;2024-03-25T05:25:15;2.20;99.90
2657;DHT22;1338;48.176;11.792;2024-03-25T05:27:42;2.10;99.90
2657;DHT22;1338;48.176;11.792;2024-03-25T05:30:09;2.10;99.90
2657;DHT22;1338;48.176;11.792;2024-03-25T05:32:36;2.20;99.90
2657;DHT22;1338;48.176;11.792;2024-03-25T05:35:05;2.30;99.90
2657;DHT22;1338;48.176;11.792;2024-03-25T05:37:33;2.20;99.90
2657;DHT22;1338;48.176;11.792;2024-03-25T05:39:59;2.30;99.90
2657;DHT22;1338;48.176;11.792;2024-03-25T05:42:26;2.40;99.90
2657;DHT22;1338;48.176;11.792;2024-03-25T05:44:53;2.50;99.90
2657;DHT22;1338;48.176;11.792;2024-03-25T05:47:20;2.60;99.90
2657;DHT22;1338;48.176;11.792;2024-03-25T05:49:50;2.60;99.90
2657;DHT22;1338;48.176;11.792;2024-03-25T05:52:18;2.70;99.90
2657;DHT22;1338;48.176;11.792;2024-03-25T05:54:45;2.70;99.90
2657;DHT22;1338;48.176;11.792;2024-03-25T05:57:12;2.80;99.90
2657;DHT22;1338;48.176;11.792;2024-03-25T05:59:38;2.80;99.90
2657;DHT22;1338;48.176;11.792;2024-03-25T06:02:05;2.90;99.90
2657;DHT22;1338;48.176;11.792;2024-03-25T06:04:32;2.90;99.90
2657;DHT22;1338;48.176;11.792;2024-03-25T06:06:58;2.90;99.90
2657;DHT22;1338;48.176;11.792;2024-03-25T06:09:27;3.00;99.90
2657;DHT22;1338;48.176;11.792;2024-03-25T06:11:53;2.90;99.90
2657;DHT22;1338;48.176;11.792;2024-03-25T06:14:20;3.00;99.90
2657;DHT22;1338;48.176;11.792;2024-03-25T06:16:46;3.00;97.80
2657;DHT22;1338;48.176;11.792;2024-03-25T06:19:13;3.10;78.30
2657;DHT22;1338;48.176;11.792;2024-03-25T06:21:40;3.10;36.60
2657;DHT22;1338;48.176;11.792;2024-03-25T06:24:07;3.20;12.30
2657;DHT22;1338;48.176;11.792;2024-03-25T06:26:35;3.20;1.00
2657;DHT22;1338;48.176;11.792;2024-03-25T06:29:02;3.30;5.60
2657;DHT22;1338;48.176;11.792;2024-03-25T06:31:29;3.30;1.00
2657;DHT22;1338;48.176;11.792;2024-03-25T06:34:28;3.30;1.00
2657;DHT22;1338;48.176;11.792;2024-03-25T06:36:55;3.40;1.00
2657;DHT22;1338;48.176;11.792;2024-03-25T06:39:22;3.50;1.00
2657;DHT22;1338;48.176;11.792;2024-03-25T06:41:50;3.60;1.00
2657;DHT22;1338;48.176;11.792;2024-03-25T06:44:16;3.70;1.00
2657;DHT22;1338;48.176;11.792;2024-03-25T06:46:43;3.70;1.00
2657;DHT22;1338;48.176;11.792;2024-03-25T06:49:09;3.80;1.00
2657;DHT22;1338;48.176;11.792;2024-03-25T06:51:36;3.80;1.00
2657;DHT22;1338;48.176;11.792;2024-03-25T06:54:03;3.90;1.00
2657;DHT22;1338;48.176;11.792;2024-03-25T06:56:30;3.90;1.00
2657;DHT22;1338;48.176;11.792;2024-03-25T06:58:58;4.00;1.00
2657;DHT22;1338;48.176;11.792;2024-03-25T07:01:24;4.00;1.00
2657;DHT22;1338;48.176;11.792;2024-03-25T07:03:51;4.10;1.00
2657;DHT22;1338;48.176;11.792;2024-03-25T07:06:17;4.30;1.00
2657;DHT22;1338;48.176;11.792;2024-03-25T07:08:44;4.30;1.00
2657;DHT22;1338;48.176;11.792;2024-03-25T07:11:11;4.40;1.00
2657;DHT22;1338;48.176;11.792;2024-03-25T07:13:38;4.30;1.00
2657;DHT22;1338;48.176;11.792;2024-03-25T07:16:06;4.60;1.00
2657;DHT22;1338;48.176;11.792;2024-03-25T07:18:33;4.60;1.00
2657;DHT22;1338;48.176;11.792;2024-03-25T07:21:00;4.70;1.00
2657;DHT22;1338;48.176;11.792;2024-03-25T07:23:26;4.70;1.00
2657;DHT22;1338;48.176;11.792;2024-03-25T07:25:53;5.00;1.00
2657;DHT22;1338;48.176;11.792;2024-03-25T07:28:20;4.90;1.00
2657;DHT22;1338;48.176;11.792;2024-03-25T07:30:46;5.10;1.00
2657;DHT22;1338;48.176;11.792;2024-03-25T07:33:14;5.10;1.00
2657;DHT22;1338;48.176;11.792;2024-03-25T07:35:41;5.30;1.00
2657;DHT22;1338;48.176;11.792;2024-03-25T07:38:08;5.40;1.00
2657;DHT22;1338;48.176;11.792;2024-03-25T07:40:34;5.50;1.00
2657;DHT22;1338;48.176;11.792;2024-03-25T07:43:01;5.80;1.00
2657;DHT22;1338;48.176;11.792;2024-03-25T07:45:28;5.50;1.00
2657;DHT22;1338;48.176;11.792;2024-03-25T07:47:54;5.50;1.00
2657;DHT22;1338;48.176;11.792;2024-03-25T07:50:24;5.40;1.00
2657;DHT22;1338;48.176;11.792;2024-03-25T07:52:51;5.40;1.00
2657;DHT22;1338;48.176;11.792;2024-03-25T07:55:17;5.80;1.00
2657;DHT22;1338;48.176;11.792;2024-03-25T07:57:44;5.40;1.00
2657;DHT22;1338;48.176;11.792;2024-03-25T08:00:12;5.70;1.00
2657;DHT22;1338;48.176;11.792;2024-03-25T08:02:39;5.60;1.00
2657;DHT22;1338;48.176;11.792;2024-03-25T08:05:06;5.60;1.00
2657;DHT22;1338;48.176;11.792;2024-03-25T08:07:34;5.60;1.00
2657;DHT22;1338;48.176;11.792;2024-03-25T08:10:01;5.30;1.00
2657;DHT22;1338;48.176;11.792;2024-03-25T08:12:28;5.40;1.00
2657;DHT22;1338;48.176;11.792;2024-03-25T08:14:55;5.70;1.00
2657;DHT22;1338;48.176;11.792;2024-03-25T08:17:22;5.90;1.00
2657;DHT22;1338;48.176;11.792;2024-03-25T08:19:48;5.70;1.00
2657;DHT22;1338;48.176;11.792;2024-03-25T08:22:15;5.70;1.00
2657;DHT22;1338;48.176;11.792;2024-03-25T08:24:43;5.60;1.00
2657;DHT22;1338;48.176;11.792;2024-03-25T08:27:10;5.50;1.00
2657;DHT22;1338;48.176;11.792;2024-03-25T08:29:37;5.50;1.00
2657;DHT22;1338;48.176;11.792;2024-03-25T08:32:04;5.50;1.00
2657;DHT22;1338;48.176;11.792;2024-03-25T08:34:31;5.70;1.00
2657;DHT22;1338;48.176;11.792;2024-03-25T08:36:58;6.00;1.00
2657;DHT22;1338;48.176;11.792;2024-03-25T08:39:24;6.00;1.00
2657;DHT22;1338;48.176;11.792;2024-03-25T08:41:52;6.40;1.00
2657;DHT22;1338;48.176;11.792;2024-03-25T08:44:20;6.30;1.00
2657;DHT22;1338;48.176;11.792;2024-03-25T08:46:48;6.50;1.00
2657;DHT22;1338;48.176;11.792;2024-03-25T08:49:15;6.10;1.00
2657;DHT22;1338;48.176;11.792;2024-03-25T08:51:42;6.40;1.00
2657;DHT22;1338;48.176;11.792;2024-03-25T08:54:09;6.60;1.00
2657;DHT22;1338;48.176;11.792;2024-03-25T08:56:36;6.70;1.00
2657;DHT22;1338;48.176;11.792;2024-03-25T08:59:04;6.60;1.00
2657;DHT22;1338;48.176;11.792;2024-03-25T09:01:30;6.10;1.00
2657;DHT22;1338;48.176;11.792;2024-03-25T09:03:57;6.30;1.00
2657;DHT22;1338;48.176;11.792;2024-03-25T09:06:23;6.20;1.00
2657;DHT22;1338;48.176;11.792;2024-03-25T09:08:50;6.10;1.00
2657;DHT22;1338;48.176;11.792;2024-03-25T09:11:35;6.30;1.00
2657;DHT22;1338;48.176;11.792;2024-03-25T09:14:03;6.40;1.00
2657;DHT22;1338;48.176;11.792;2024-03-25T09:16:30;6.20;1.00
2657;DHT22;1338;48.176;11.792;2024-03-25T09:18:57;6.30;1.00
2657;DHT22;1338;48.176;11.792;2024-03-25T09:21:24;6.30;1.00
2657;DHT22;1338;48.176;11.792;2024-03-25T09:23:50;6.60;1.00
2657;DHT22;1338;48.176;11.792;2024-03-25T09:26:17;7.10;1.00
2657;DHT22;1338;48.176;11.792;2024-03-25T09:28:44;7.10;1.00
2657;DHT22;1338;48.176;11.792;2024-03-25T09:31:12;7.00;1.00
2657;DHT22;1338;48.176;11.792;2024-03-25T09:33:39;7.30;1.00
2657;DHT22;1338;48.176;11.792;2024-03-25T09:36:06;7.40;1.00
2657;DHT22;1338;48.176;11.792;2024-03-25T09:38:33;7.40;1.00
2657;DHT22;1338;48.176;11.792;2024-03-25T09:40:59;6.90;1.00
2657;DHT22;1338;48.176;11.792;2024-03-25T09:43:31;6.80;1.00
2657;DHT22;1338;48.176;11.792;2024-03-25T09:45:59;7.00;1.00
2657;DHT22;1338;48.176;11.792;2024-03-25T09:48:29;7.00;1.00
2657;DHT22;1338;48.176;11.792;2024-03-25T09:50:56;7.10;1.00
2657;DHT22;1338;48.176;11.792;2024-03-25T09:53:23;7.70;1.00
2657;DHT22;1338;48.176;11.792;2024-03-25T09:55:49;7.30;1.00
2657;DHT22;1338;48.176;11.792;2024-03-25T09:58:17;7.90;1.00
2657;DHT22;1338;48.176;11.792;2024-03-25T10:00:45;8.20;1.00
2657;DHT22;1338;48.176;11.792;2024-03-25T10:03:11;8.10;99.90
2657;DHT22;1338;48.176;11.792;2024-03-25T10:05:39;7.90;99.90
2657;DHT22;1338;48.176;11.792;2024-03-25T10:08:06;7.70;99.90
2657;DHT22;1338;48.176;11.792;2024-03-25T10:10:33;7.80;99.90
2657;DHT22;1338;48.176;11.792;2024-03-25T10:13:00;7.30;99.90
2657;DHT22;1338;48.176;11.792;2024-03-25T10:15:27;7.20;99.90
2657;DHT22;1338;48.176;11.792;2024-03-25T10:17:55;7.10;99.90
2657;DHT22;1338;48.176;11.792;2024-03-25T10:20:22;7.10;99.90
2657;DHT22;1338;48.176;11.792;2024-03-25T10:22:50;7.20;99.90
2657;DHT22;1338;48.176;11.792;2024-03-25T10:25:23;7.60;99.90
2657;DHT22;1338;48.176;11.792;2024-03-25T10:27:55;8.10;99.90
2657;DHT22;1338;48.176;11.792;2024-03-25T10:30:22;8.30;99.90
2657;DHT22;1338;48.176;11.792;2024-03-25T10:33:01;8.50;99.90
2657;DHT22;1338;48.176;11.792;2024-03-25T10:35:29;8.50;99.90
2657;DHT22;1338;48.176;11.792;2024-03-25T10:37:59;8.80;99.90
2657;DHT22;1338;48.176;11.792;2024-03-25T10:40:28;8.40;99.90
2657;DHT22;1338;48.176;11.792;2024-03-25T10:43:01;8.30;99.90
2657;DHT22;1338;48.176;11.792;2024-03-25T10:45:29;8.60;99.90
2657;DHT22;1338;48.176;11.792;2024-03-25T10:47:57;8.90;99.90
2657;DHT22;1338;48.176;11.792;2024-03-25T10:50:28;8.80;99.90
2657;DHT22;1338;48.176;11.792;2024-03-25T10:52:58;8.60;99.90
2657;DHT22;1338;48.176;11.792;2024-03-25T10:55:26;8.80;99.90
2657;DHT22;1338;48.176;11.792;2024-03-25T10:57:54;8.20;99.90
2657;DHT22;1338;48.176;11.792;2024-03-25T11:00:23;8.50;99.90
2657;DHT22;1338;48.176;11.792;2024-03-25T11:02:51;8.70;99.90
2657;DHT22;1338;48.176;11.792;2024-03-25T11:05:19;8.40;99.90
2657;DHT22;1338;48.176;11.792;2024-03-25T11:07:46;8.40;99.90
2657;DHT22;1338;48.176;11.792;2024-03-25T11:10:16;8.30;99.90
2657;DHT22;1338;48.176;11.792;2024-03-25T11:12:42;8.90;99.90
2657;DHT22;1338;48.176;11.792;2024-03-25T11:15:09;8.80;99.90
2657;DHT22;1338;48.176;11.792;2024-03-25T11:17:37;8.90;99.90
2657;DHT22;1338;48.176;11.792;2024-03-25T11:20:15;9.10;99.90
2657;DHT22;1338;48.176;11.792;2024-03-25T11:22:49;9.10;99.90
2657;DHT22;1338;48.176;11.792;2024-03-25T11:25:20;9.80;99.90
2657;DHT22;1338;48.176;11.792;2024-03-25T11:27:47;9.30;99.90
2657;DHT22;1338;48.176;11.792;2024-03-25T11:30:15;9.20;99.90
2657;DHT22;1338;48.176;11.792;2024-03-25T11:32:44;9.00;99.90
2657;DHT22;1338;48.176;11.792;2024-03-25T11:35:11;9.30;99.90
2657;DHT22;1338;48.176;11.792;2024-03-25T11:37:41;9.50;99.90
2657;DHT22;1338;48.176;11.792;2024-03-25T11:40:09;9.70;99.90
2657;DHT22;1338;48.176;11.792;2024-03-25T11:42:38;9.60;99.90
2657;DHT22;1338;48.176;11.792;2024-03-25T11:45:06;9.70;99.90
2657;DHT22;1338;48.176;11.792;2024-03-25T11:47:33;9.90;99.90
2657;DHT22;1338;48.176;11.792;2024-03-25T11:50:07;10.20;99.90
2657;DHT22;1338;48.176;11.792;2024-03-25T11:52:34;9.80;99.90
2657;DHT22;1338;48.176;11.792;2024-03-25T11:55:01;9.70;99.90
2657;DHT22;1338;48.176;11.792;2024-03-25T11:57:28;9.50;99.90
2657;DHT22;1338;48.176;11.792;2024-03-25T11:59:58;9.40;99.90
2657;DHT22;1338;48.176;11.792;2024-03-25T12:02:25;10.00;99.90
2657;DHT22;1338;48.176;11.792;2024-03-25T12:04:55;10.20;99.90
2657;DHT22;1338;48.176;11.792;2024-03-25T12:07:21;10.20;99.90
2657;DHT22;1338;48.176;11.792;2024-03-25T12:09:48;10.40;99.90
2657;DHT22;1338;48.176;11.792;2024-03-25T12:12:33;10.30;99.90
2657;DHT22;1338;48.176;11.792;2024-03-25T12:15:03;10.60;99.90
2657;DHT22;1338;48.176;11.792;2024-03-25T12:17:30;11.20;99.90
2657;DHT22;1338;48.176;11.792;2024-03-25T12:20:02;10.90;99.90
2657;DHT22;1338;48.176;11.792;2024-03-25T12:22:30;12.10;99.90
2657;DHT22;1338;48.176;11.792;2024-03-25T12:24:58;12.90;99.90
2657;DHT22;1338;48.176;11.792;2024-03-25T12:27:25;13.60;99.90
2657;DHT22;1338;48.176;11.792;2024-03-25T12:29:59;12.90;99.90
2657;DHT22;1338;48.176;11.792;2024-03-25T12:32:42;10.90;94.50
2657;DHT22;1338;48.176;11.792;2024-03-25T12:35:10;11.30;98.40
2657;DHT22;1338;48.176;11.792;2024-03-25T12:37:37;11.50;92.70
2657;DHT22;1338;48.176;11.792;2024-03-25T12:40:06;12.80;99.90
2657;DHT22;1338;48.176;11.792;2024-03-25T12:42:33;12.40;99.90
2657;DHT22;1338;48.176;11.792;2024-03-25T12:45:00;12.50;99.90
2657;DHT22;1338;48.176;11.792;2024-03-25T12:47:26;13.40;99.90
2657;DHT22;1338;48.176;11.792;2024-03-25T12:49:54;12.30;99.90
2657;DHT22;1338;48.176;11.792;2024-03-25T12:52:21;12.70;99.90
2657;DHT22;1338;48.176;11.792;2024-03-25T12:54:48;12.70;99.90
2657;DHT22;1338;48.176;11.792;2024-03-25T12:57:15;13.10;99.90
2657;DHT22;1338;48.176;11.792;2024-03-25T12:59:43;14.90;99.90
2657;DHT22;1338;48.176;11.792;2024-03-25T13:02:11;15.10;99.90
2657;DHT22;1338;48.176;11.792;2024-03-25T13:04:38;13.30;99.90
2657;DHT22;1338;48.176;11.792;2024-03-25T13:07:07;13.50;99.90
2657;DHT22;1338;48.176;11.792;2024-03-25T13:09:33;13.30;99.90
2657;DHT22;1338;48.176;11.792;2024-03-25T13:12:00;13.60;99.90
2657;DHT22;1338;48.176;11.792;2024-03-25T13:14:26;13.60;99.90
2657;DHT22;1338;48.176;11.792;2024-03-25T13:16:53;14.30;99.90
2657;DHT22;1338;48.176;11.792;2024-03-25T13:19:20;14.80;99.90
2657;DHT22;1338;48.176;11.792;2024-03-25T13:21:47;14.00;99.90
2657;DHT22;1338;48.176;11.792;2024-03-25T13:24:15;14.20;99.90
2657;DHT22;1338;48.176;11.792;2024-03-25T13:26:42;14.50;99.90
2657;DHT22;1338;48.176;11.792;2024-03-25T13:29:09;13.60;95.80
2657;DHT22;1338;48.176;11.792;2024-03-25T13:31:37;13.20;79.80
2657;DHT22;1338;48.176;11.792;2024-03-25T13:34:03;12.30;65.40
2657;DHT22;1338;48.176;11.792;2024-03-25T13:36:30;12.90;80.20
2657;DHT22;1338;48.176;11.792;2024-03-25T13:38:57;13.80;95.00
2657;DHT22;1338;48.176;11.792;2024-03-25T13:41:25;14.10;94.00
2657;DHT22;1338;48.176;11.792;2024-03-25T13:43:52;13.80;99.90
2657;DHT22;1338;48.176;11.792;2024-03-25T13:46:18;13.50;99.90
2657;DHT22;1338;48.176;11.792;2024-03-25T13:48:47;14.40;99.90
2657;DHT22;1338;48.176;11.792;2024-03-25T13:51:14;14.40;99.90
2657;DHT22;1338;48.176;11.792;2024-03-25T13:53:40;15.20;99.90
2657;DHT22;1338;48.176;11.792;2024-03-25T13:56:07;14.00;99.90
2657;DHT22;1338;48.176;11.792;2024-03-25T13:58:35;14.80;99.90
2657;DHT22;1338;48.176;11.792;2024-03-25T14:01:02;16.70;95.90
2657;DHT22;1338;48.176;11.792;2024-03-25T14:03:29;16.70;99.90
2657;DHT22;1338;48.176;11.792;2024-03-25T14:05:55;16.80;99.50
2657;DHT22;1338;48.176;11.792;2024-03-25T14:08:21;16.70;75.60
2657;DHT22;1338;48.176;11.792;2024-03-25T14:10:57;16.90;83.10
2657;DHT22;1338;48.176;11.792;2024-03-25T14:13:23;16.00;38.20
2657;DHT22;1338;48.176;11.792;2024-03-25T14:15:51;15.00;54.90
2657;DHT22;1338;48.176;11.792;2024-03-25T14:18:18;16.00;74.20
2657;DHT22;1338;48.176;11.792;2024-03-25T14:20:45;16.30;69.30
2657;DHT22;1338;48.176;11.792;2024-03-25T14:23:11;15.70;51.30
2657;DHT22;1338;48.176;11.792;2024-03-25T14:25:38;15.10;58.90
2657;DHT22;1338;48.176;11.792;2024-03-25T14:28:05;16.80;54.90
2657;DHT22;1338;48.176;11.792;2024-03-25T14:30:31;17.20;67.30
2657;DHT22;1338;48.176;11.792;2024-03-25T14:32:59;15.60;55.90
2657;DHT22;1338;48.176;11.792;2024-03-25T14:35:26;17.00;51.80
2657;DHT22;1338;48.176;11.792;2024-03-25T14:37:52;16.70;51.80
2657;DHT22;1338;48.176;11.792;2024-03-25T14:40:19;15.80;57.90
2657;DHT22;1338;48.176;11.792;2024-03-25T14:42:45;15.10;37.80
2657;DHT22;1338;48.176;11.792;2024-03-25T14:45:12;14.90;32.70
2657;DHT22;1338;48.176;11.792;2024-03-25T14:47:38;15.60;39.90
2657;DHT22;1338;48.176;11.792;2024-03-25T14:50:07;16.40;41.80
2657;DHT22;1338;48.176;11.792;2024-03-25T14:52:34;16.00;25.90
2657;DHT22;1338;48.176;11.792;2024-03-25T14:55:00;16.10;26.80
2657;DHT22;1338;48.176;11.792;2024-03-25T14:57:27;17.90;36.50
2657;DHT22;1338;48.176;11.792;2024-03-25T14:59:53;17.90;41.20
2657;DHT22;1338;48.176;11.792;2024-03-25T15:02:20;16.80;30.10
2657;DHT22;1338;48.176;11.792;2024-03-25T15:04:47;17.20;25.60
2657;DHT22;1338;48.176;11.792;2024-03-25T15:07:15;17.00;21.70
2657;DHT22;1338;48.176;11.792;2024-03-25T15:09:41;16.90;22.00
2657;DHT22;1338;48.176;11.792;2024-03-25T15:12:08;17.10;20.20
2657;DHT22;1338;48.176;11.792;2024-03-25T15:14:35;17.40;18.30
2657;DHT22;1338;48.176;11.792;2024-03-25T15:17:03;17.50;18.90
2657;DHT22;1338;48.176;11.792;2024-03-25T15:19:30;17.60;21.30
2657;DHT22;1338;48.176;11.792;2024-03-25T15:21:57;15.90;2.30
2657;DHT22;1338;48.176;11.792;2024-03-25T15:24:25;15.90;4.60
2657;DHT22;1338;48.176;11.792;2024-03-25T15:26:51;15.30;1.00
2657;DHT22;1338;48.176;11.792;2024-03-25T15:29:18;16.60;9.10
2657;DHT22;1338;48.176;11.792;2024-03-25T15:31:44;16.70;4.90
2657;DHT22;1338;48.176;11.792;2024-03-25T15:34:11;15.40;1.00
2657;DHT22;1338;48.176;11.792;2024-03-25T15:36:37;16.20;1.50
2657;DHT22;1338;48.176;11.792;2024-03-25T15:39:05;15.70;1.00
2657;DHT22;1338;48.176;11.792;2024-03-25T15:41:34;14.70;1.00
2657;DHT22;1338;48.176;11.792;2024-03-25T15:44:00;15.00;1.00
2657;DHT22;1338;48.176;11.792;2024-03-25T15:46:27;16.50;3.10
2657;DHT22;1338;48.176;11.792;2024-03-25T15:48:53;16.80;10.50
2657;DHT22;1338;48.176;11.792;2024-03-25T15:51:21;15.60;6.80
2657;DHT22;1338;48.176;11.792;2024-03-25T15:53:47;14.70;1.00
2657;DHT22;1338;48.176;11.792;2024-03-25T15:56:14;14.60;1.00
2657;DHT22;1338;48.176;11.792;2024-03-25T15:58:42;14.90;1.00
2657;DHT22;1338;48.176;11.792;2024-03-25T16:01:09;14.60;1.00
2657;DHT22;1338;48.176;11.792;2024-03-25T16:03:36;14.50;1.00